createdAt,value
2023-05-17T00:01:02.577Z,3.80
2023-05-17T00:03:29.481Z,3.25
2023-05-17T00:05:56.548Z,4.38
2023-05-17T00:08:23.505Z,3.83
2023-05-17T00:10:50.452Z,4.07
2023-05-17T00:13:17.430Z,4.68
2023-05-17T00:15:44.378Z,5.68
2023-05-17T00:18:11.430Z,2.80
2023-05-17T00:20:38.585Z,2.95
2023-05-17T00:23:05.571Z,5.47
2023-05-17T00:25:32.525Z,2.85
2023-05-17T00:27:59.523Z,2.67
2023-05-17T00:30:28.636Z,3.85
2023-05-17T00:32:56.653Z,3.50
2023-05-17T00:35:24.382Z,4.80
2023-05-17T00:37:52.413Z,3.47
2023-05-17T00:40:19.535Z,3.30
2023-05-17T00:42:46.774Z,3.22
2023-05-17T00:45:14.033Z,3.75
2023-05-17T00:47:41.332Z,3.28
2023-05-17T00:50:09.194Z,4.53
2023-05-17T00:52:36.651Z,3.20
2023-05-17T00:55:03.993Z,4.07
2023-05-17T00:57:32.261Z,3.88
2023-05-17T01:00:01.616Z,4.80
2023-05-17T01:02:28.728Z,3.08
2023-05-17T01:04:55.908Z,3.83
2023-05-17T01:07:22.894Z,3.53
2023-05-17T01:09:50.415Z,3.45
2023-05-17T01:12:58.414Z,6.88
2023-05-17T01:15:32.029Z,3.40
2023-05-17T01:18:40.719Z,3.88
2023-05-17T01:21:41.088Z,4.90
2023-05-17T01:24:50.540Z,4.07
2023-05-17T01:27:21.052Z,3.67
2023-05-17T01:29:50.817Z,4.68
2023-05-17T01:32:19.991Z,4.70
2023-05-17T01:34:47.029Z,3.03
2023-05-17T01:37:14.094Z,4.30
2023-05-17T01:39:41.654Z,4.75
2023-05-17T01:42:24.622Z,4.47
2023-05-17T01:45:08.266Z,4.95
2023-05-17T01:48:03.708Z,3.28
2023-05-17T01:50:33.289Z,4.40
2023-05-17T01:53:09.231Z,4.57
2023-05-17T01:55:53.292Z,4.03
2023-05-17T01:58:27.040Z,4.00
2023-05-17T02:00:56.948Z,4.82
2023-05-17T02:03:24.413Z,5.25
2023-05-17T02:05:53.157Z,5.13
2023-05-17T02:08:20.268Z,3.92
2023-05-17T02:10:47.191Z,4.78
2023-05-17T02:13:14.125Z,4.68
2023-05-17T02:15:41.217Z,4.50
2023-05-17T02:18:08.356Z,4.47
2023-05-17T02:20:35.517Z,3.80
2023-05-17T02:23:02.448Z,4.82
2023-05-17T02:25:29.532Z,4.53
2023-05-17T02:27:56.791Z,4.60
2023-05-17T02:30:24.695Z,5.43
2023-05-17T02:32:52.359Z,5.68
2023-05-17T02:35:19.656Z,6.00
2023-05-17T02:37:46.666Z,4.00
2023-05-17T02:40:14.230Z,5.68
2023-05-17T02:42:41.174Z,3.78
2023-05-17T02:45:08.551Z,3.60
2023-05-17T02:47:35.664Z,4.22
2023-05-17T02:50:02.998Z,4.28
2023-05-17T02:52:31.169Z,4.10
2023-05-17T02:54:58.483Z,5.35
2023-05-17T02:57:25.518Z,3.63
2023-05-17T02:59:53.151Z,4.90
2023-05-17T03:02:20.243Z,3.85
2023-05-17T03:04:47.353Z,3.95
2023-05-17T03:07:14.507Z,3.95
2023-05-17T03:09:42.965Z,2.75
2023-05-17T03:12:10.151Z,4.47
2023-05-17T03:14:37.310Z,3.35
2023-05-17T03:17:04.531Z,3.92
2023-05-17T03:19:34.239Z,2.50
2023-05-17T03:22:01.273Z,2.40
2023-05-17T03:24:28.301Z,2.90
2023-05-17T03:26:55.387Z,2.53
2023-05-17T03:29:22.768Z,3.33
2023-05-17T03:31:51.200Z,3.75
2023-05-17T03:34:18.143Z,2.72
2023-05-17T03:36:45.212Z,3.17
2023-05-17T03:39:12.430Z,4.45
2023-05-17T03:41:42.208Z,2.30
2023-05-17T03:44:09.780Z,2.83
2023-05-17T03:46:38.142Z,4.05
2023-05-17T03:49:05.798Z,3.05
2023-05-17T03:51:34.263Z,3.78
2023-05-17T03:54:02.361Z,3.85
2023-05-17T03:56:31.672Z,2.50
2023-05-17T03:58:58.829Z,2.70
2023-05-17T04:01:25.890Z,4.00
2023-05-17T04:03:52.932Z,2.53
2023-05-17T04:06:21.632Z,3.17
2023-05-17T04:08:48.875Z,4.38
2023-05-17T04:11:15.986Z,3.00
2023-05-17T04:13:43.733Z,4.45
2023-05-17T04:16:10.953Z,2.83
2023-05-17T04:18:41.214Z,3.08
2023-05-17T04:21:09.328Z,2.83
2023-05-17T04:23:37.485Z,3.10
2023-05-17T04:26:06.181Z,3.63
2023-05-17T04:28:36.049Z,3.05
2023-05-17T04:31:08.581Z,3.00
2023-05-17T04:33:38.971Z,2.95
2023-05-17T04:36:07.649Z,2.33
2023-05-17T04:38:35.741Z,3.00
2023-05-17T04:41:06.660Z,3.50
2023-05-17T04:43:36.915Z,2.47
2023-05-17T04:46:07.186Z,3.00
2023-05-17T04:48:34.532Z,2.70
2023-05-17T04:51:04.339Z,2.60
2023-05-17T04:53:32.233Z,3.15
2023-05-17T04:56:04.132Z,2.25
2023-05-17T04:58:31.990Z,2.50
2023-05-17T05:01:00.746Z,2.45
2023-05-17T05:03:27.926Z,2.40
2023-05-17T05:05:55.792Z,2.05
2023-05-17T05:08:23.649Z,3.83
2023-05-17T05:10:52.678Z,2.63
2023-05-17T05:13:23.461Z,2.97
2023-05-17T05:15:51.961Z,3.13
2023-05-17T05:18:19.286Z,2.08
2023-05-17T05:20:49.056Z,2.40
2023-05-17T05:23:18.530Z,3.67
2023-05-17T05:25:47.866Z,2.40
2023-05-17T05:28:15.153Z,2.45
2023-05-17T05:30:42.842Z,3.58
2023-05-17T05:33:11.189Z,3.30
2023-05-17T05:35:38.445Z,2.40
2023-05-17T05:38:05.747Z,2.30
2023-05-17T05:40:33.538Z,2.65
2023-05-17T05:43:00.630Z,2.88
2023-05-17T05:45:27.654Z,2.40
2023-05-17T05:47:59.799Z,2.20
2023-05-17T05:50:28.269Z,2.13
2023-05-17T05:53:10.817Z,1.88
2023-05-17T05:55:46.507Z,2.15
2023-05-17T05:58:13.518Z,2.28
2023-05-17T06:00:40.772Z,1.42
2023-05-17T06:03:08.041Z,1.73
2023-05-17T06:05:35.163Z,2.15
2023-05-17T06:08:02.534Z,2.65
2023-05-17T06:10:29.866Z,1.58
2023-05-17T06:12:57.151Z,2.65
2023-05-17T06:15:24.415Z,2.00
2023-05-17T06:17:51.718Z,1.92
2023-05-17T06:20:18.987Z,1.67
2023-05-17T06:22:46.022Z,1.75
2023-05-17T06:25:13.086Z,4.50
2023-05-17T06:27:40.299Z,2.58
2023-05-17T06:30:08.709Z,2.40
2023-05-17T06:32:36.215Z,1.80
2023-05-17T06:35:03.675Z,1.30
2023-05-17T06:37:30.690Z,2.35
2023-05-17T06:40:14.816Z,1.77
2023-05-17T06:42:42.473Z,2.08
2023-05-17T06:45:10.575Z,2.03
2023-05-17T06:47:37.967Z,1.75
2023-05-17T06:50:06.905Z,1.60
2023-05-17T06:52:33.899Z,1.65
2023-05-17T06:55:01.022Z,1.92
2023-05-17T06:57:28.169Z,1.80
2023-05-17T06:59:55.217Z,1.40
2023-05-17T07:02:22.309Z,1.60
2023-05-17T07:04:49.332Z,1.88
2023-05-17T07:07:16.600Z,1.92
2023-05-17T07:09:43.586Z,1.55
2023-05-17T07:12:10.802Z,4.28
2023-05-17T07:14:37.814Z,1.42
2023-05-17T07:17:05.011Z,2.00
2023-05-17T07:19:32.192Z,1.80
2023-05-17T07:21:59.291Z,1.85
2023-05-17T07:24:26.231Z,2.05
2023-05-17T07:26:53.246Z,1.50
2023-05-17T07:29:20.304Z,1.40
2023-05-17T07:31:47.270Z,1.60
2023-05-17T07:34:14.649Z,1.85
2023-05-17T07:36:41.770Z,1.90
2023-05-17T07:39:10.071Z,1.80
2023-05-17T07:41:37.534Z,1.80
2023-05-17T07:44:04.579Z,1.58
2023-05-17T07:46:31.599Z,1.42
2023-05-17T07:48:59.074Z,1.85
2023-05-17T07:51:26.442Z,1.70
2023-05-17T07:53:53.552Z,1.88
2023-05-17T07:56:20.605Z,2.08
2023-05-17T07:58:47.777Z,1.33
2023-05-17T08:01:14.906Z,1.00
2023-05-17T08:03:48.024Z,1.17
2023-05-17T08:06:16.621Z,1.00
2023-05-17T08:08:44.728Z,1.63
2023-05-17T08:11:12.826Z,1.17
2023-05-17T08:13:39.807Z,1.25
2023-05-17T08:16:14.207Z,3.03
2023-05-17T08:18:43.629Z,2.37
2023-05-17T08:21:11.564Z,0.98
2023-05-17T08:23:39.370Z,1.50
2023-05-17T08:26:06.712Z,1.33
2023-05-17T08:28:33.819Z,0.80
2023-05-17T08:31:01.245Z,1.50
2023-05-17T08:33:28.656Z,1.67
2023-05-17T08:35:57.802Z,1.30
2023-05-17T08:38:24.774Z,1.20
2023-05-17T08:40:56.198Z,1.58
2023-05-17T08:43:27.563Z,1.75
2023-05-17T08:45:58.058Z,1.25
2023-05-17T08:48:31.439Z,0.98
2023-05-17T08:51:00.154Z,1.08
2023-05-17T08:53:27.493Z,0.93
2023-05-17T08:56:00.663Z,1.05
2023-05-17T08:58:35.962Z,0.73
2023-05-17T09:01:09.239Z,1.23
2023-05-17T09:03:40.364Z,0.90
2023-05-17T09:06:10.097Z,2.10
2023-05-17T09:08:38.171Z,1.50
2023-05-17T09:11:05.596Z,1.10
2023-05-17T09:13:32.564Z,1.00
2023-05-17T09:15:59.549Z,0.63
2023-05-17T09:18:34.321Z,1.55
2023-05-17T09:21:07.447Z,1.05
2023-05-17T09:23:34.533Z,1.27
2023-05-17T09:26:08.247Z,1.10
2023-05-17T09:28:42.312Z,1.27
2023-05-17T09:31:11.017Z,1.58
2023-05-17T09:33:49.791Z,1.42
2023-05-17T09:36:23.026Z,1.60
2023-05-17T09:39:00.032Z,1.35
2023-05-17T09:41:41.509Z,1.67
2023-05-17T09:44:13.192Z,1.08
2023-05-17T09:46:47.881Z,0.80
2023-05-17T09:49:17.089Z,1.52
2023-05-17T09:51:48.225Z,1.00
2023-05-17T09:54:15.583Z,1.30
2023-05-17T09:56:43.233Z,1.08
2023-05-17T09:59:17.159Z,1.13
2023-05-17T10:01:45.745Z,1.58
2023-05-17T10:04:13.969Z,1.17
2023-05-17T10:06:49.742Z,1.70
2023-05-17T10:09:22.469Z,2.92
2023-05-17T10:11:52.677Z,0.90
2023-05-17T10:14:27.834Z,1.17
2023-05-17T10:16:56.328Z,1.10
2023-05-17T10:19:24.945Z,1.00
2023-05-17T10:21:54.792Z,1.20
2023-05-17T10:24:23.385Z,1.48
2023-05-17T10:26:51.692Z,2.22
2023-05-17T10:29:21.223Z,1.25
2023-05-17T10:31:53.434Z,1.17
2023-05-17T10:34:21.411Z,1.38
2023-05-17T10:36:53.381Z,1.20
2023-05-17T10:39:22.151Z,1.17
2023-05-17T10:41:55.759Z,1.52
2023-05-17T10:44:33.821Z,0.80
2023-05-17T10:47:01.764Z,1.10
2023-05-17T10:49:34.057Z,1.45
2023-05-17T10:52:16.804Z,1.40
2023-05-17T10:54:48.336Z,1.70
2023-05-17T10:57:42.794Z,1.63
2023-05-17T11:00:21.434Z,2.33
2023-05-17T11:02:49.068Z,2.38
2023-05-17T11:05:27.213Z,1.77
2023-05-17T11:08:17.398Z,2.95
2023-05-17T11:11:19.301Z,1.38
2023-05-17T11:13:56.207Z,1.70
2023-05-17T11:16:36.254Z,2.20
2023-05-17T11:19:12.166Z,1.70
2023-05-17T11:21:49.194Z,1.90
2023-05-17T11:24:29.332Z,1.88
2023-05-17T11:27:00.329Z,1.92
2023-05-17T11:29:31.055Z,2.38
2023-05-17T11:31:58.239Z,1.70
2023-05-17T11:34:26.975Z,1.55
2023-05-17T11:36:56.562Z,1.75
2023-05-17T11:39:24.906Z,1.45
2023-05-17T11:41:56.845Z,1.27
2023-05-17T11:44:32.312Z,1.80
2023-05-17T11:47:04.799Z,2.15
2023-05-17T11:49:37.069Z,1.58
2023-05-17T11:52:08.288Z,1.83
2023-05-17T11:54:40.295Z,1.55
2023-05-17T11:57:08.850Z,1.60
2023-05-17T11:59:40.193Z,2.03
2023-05-17T12:02:07.915Z,2.20
2023-05-17T12:04:39.086Z,1.70
2023-05-17T12:07:09.899Z,1.85
2023-05-17T12:09:38.893Z,1.83
2023-05-17T12:12:06.587Z,1.30
2023-05-17T12:14:33.992Z,2.17
2023-05-17T12:17:04.208Z,1.80
2023-05-17T12:19:32.689Z,1.70
2023-05-17T12:22:14.594Z,1.55
2023-05-17T12:24:43.202Z,1.75
2023-05-17T12:27:10.767Z,1.67
2023-05-17T12:29:39.215Z,1.65
2023-05-17T12:32:08.848Z,1.85
2023-05-17T12:34:36.305Z,1.63
2023-05-17T12:37:03.873Z,1.63
2023-05-17T12:39:31.673Z,1.20
2023-05-17T12:41:59.336Z,2.40
2023-05-17T12:44:26.401Z,2.20
2023-05-17T12:46:56.324Z,1.58
2023-05-17T12:49:23.710Z,1.50
2023-05-17T12:51:50.993Z,1.38
2023-05-17T12:54:28.787Z,1.30
2023-05-17T12:56:56.984Z,1.50
2023-05-17T12:59:29.031Z,1.70
2023-05-17T13:01:58.185Z,1.63
2023-05-17T13:04:33.933Z,2.97
2023-05-17T13:07:04.426Z,1.77
2023-05-17T13:09:33.192Z,1.65
2023-05-17T13:12:02.497Z,1.40
2023-05-17T13:14:46.134Z,1.52
2023-05-17T13:17:34.690Z,1.83
2023-05-17T13:20:02.363Z,2.00
2023-05-17T13:22:29.480Z,2.20
2023-05-17T13:24:56.584Z,2.00
2023-05-17T13:27:23.710Z,2.25
2023-05-17T13:29:50.794Z,2.17
2023-05-17T13:32:17.835Z,1.90
2023-05-17T13:34:44.842Z,1.50
2023-05-17T13:37:12.710Z,2.17
2023-05-17T13:39:41.341Z,1.98
2023-05-17T13:42:08.856Z,1.98
2023-05-17T13:44:36.244Z,1.73
2023-05-17T13:47:03.600Z,2.08
2023-05-17T13:49:31.059Z,2.20
2023-05-17T13:51:58.066Z,2.75
2023-05-17T13:54:25.074Z,2.35
2023-05-17T13:56:52.053Z,2.25
2023-05-17T13:59:19.019Z,1.90
2023-05-17T14:01:46.320Z,1.67
2023-05-17T14:04:13.661Z,2.15
2023-05-17T14:06:42.273Z,2.67
2023-05-17T14:09:10.588Z,2.13
2023-05-17T14:11:37.720Z,1.55
2023-05-17T14:14:04.755Z,2.28
2023-05-17T14:16:31.956Z,1.77
2023-05-17T14:19:04.315Z,1.67
2023-05-17T14:21:32.588Z,2.00
2023-05-17T14:23:59.616Z,1.65
2023-05-17T14:26:27.089Z,2.30
2023-05-17T14:28:54.136Z,1.50
2023-05-17T14:31:21.380Z,1.42
2023-05-17T14:33:48.719Z,2.55
2023-05-17T14:36:15.930Z,1.75
2023-05-17T14:38:43.004Z,3.20
2023-05-17T14:41:10.065Z,1.35
2023-05-17T14:43:37.248Z,1.90
2023-05-17T14:46:04.780Z,1.88
2023-05-17T14:48:33.034Z,1.05
2023-05-17T14:51:00.147Z,1.20
2023-05-17T14:53:29.213Z,2.03
2023-05-17T14:55:57.932Z,1.45
2023-05-17T14:58:25.631Z,1.17
2023-05-17T15:01:04.945Z,1.65
2023-05-17T15:03:33.611Z,1.60
2023-05-17T15:06:02.730Z,1.63
2023-05-17T15:08:32.393Z,1.40
2023-05-17T15:10:59.398Z,1.92
2023-05-17T15:13:26.614Z,2.60
2023-05-17T15:15:54.019Z,2.33
2023-05-17T15:18:22.263Z,1.15
2023-05-17T15:20:49.315Z,2.10
2023-05-17T15:23:16.303Z,1.50
2023-05-17T15:25:43.272Z,1.80
2023-05-17T15:28:10.234Z,1.80
2023-05-17T15:30:37.414Z,1.58
2023-05-17T15:33:04.736Z,1.10
2023-05-17T15:35:32.005Z,1.63
2023-05-17T15:37:59.842Z,1.55
2023-05-17T15:40:27.706Z,1.55
2023-05-17T15:42:54.871Z,1.80
2023-05-17T15:45:22.013Z,1.50
2023-05-17T15:47:49.622Z,1.45
2023-05-17T15:50:17.115Z,1.92
2023-05-17T15:52:44.154Z,1.60
2023-05-17T15:55:11.681Z,2.65
2023-05-17T15:57:38.841Z,1.70
2023-05-17T16:00:06.865Z,2.05
2023-05-17T16:02:34.436Z,2.47
2023-05-17T16:05:03.828Z,2.28
2023-05-17T16:07:31.458Z,1.65
2023-05-17T16:09:58.533Z,1.77
2023-05-17T16:12:25.513Z,2.42
2023-05-17T16:14:52.513Z,2.40
2023-05-17T16:17:19.804Z,1.70
2023-05-17T16:19:46.861Z,2.72
2023-05-17T16:22:14.228Z,1.42
2023-05-17T16:24:41.964Z,2.22
2023-05-17T16:27:08.989Z,1.80
2023-05-17T16:29:39.915Z,1.65
2023-05-17T16:32:08.412Z,2.28
2023-05-17T16:34:36.336Z,1.23
2023-05-17T16:37:06.426Z,1.10
2023-05-17T16:39:33.403Z,1.75
2023-05-17T16:42:00.443Z,1.30
2023-05-17T16:44:27.812Z,1.70
2023-05-17T16:46:54.972Z,1.88
2023-05-17T16:49:22.651Z,1.85
2023-05-17T16:51:51.836Z,3.05
2023-05-17T16:54:18.882Z,1.75
2023-05-17T16:56:45.883Z,2.10
2023-05-17T16:59:12.956Z,2.40
2023-05-17T17:01:40.131Z,1.83
2023-05-17T17:04:07.351Z,1.80
2023-05-17T17:06:34.613Z,1.67
2023-05-17T17:09:07.101Z,1.52
2023-05-17T17:11:35.018Z,1.48
2023-05-17T17:14:02.384Z,1.70
2023-05-17T17:16:29.917Z,2.58
2023-05-17T17:18:57.916Z,1.63
2023-05-17T17:21:25.084Z,2.60
2023-05-17T17:23:52.502Z,2.08
2023-05-17T17:26:19.560Z,2.47
2023-05-17T17:28:46.570Z,2.25
2023-05-17T17:31:13.550Z,1.60
2023-05-17T17:33:40.684Z,2.80
2023-05-17T17:36:09.303Z,2.08
2023-05-17T17:38:36.396Z,3.08
2023-05-17T17:41:03.502Z,1.80
2023-05-17T17:43:30.516Z,2.28
2023-05-17T17:45:57.599Z,1.52
2023-05-17T17:48:26.241Z,1.45
2023-05-17T17:50:53.215Z,1.58
2023-05-17T17:53:20.127Z,1.75
2023-05-17T17:55:47.120Z,1.98
2023-05-17T17:58:14.174Z,1.83
2023-05-17T18:00:41.667Z,1.45
2023-05-17T18:03:08.899Z,2.35
2023-05-17T18:05:36.544Z,1.52
2023-05-17T18:08:03.630Z,1.77
2023-05-17T18:10:34.147Z,1.30
2023-05-17T18:13:01.178Z,1.30
2023-05-17T18:15:28.188Z,2.53
2023-05-17T18:17:56.941Z,2.30
2023-05-17T18:20:26.210Z,1.63
2023-05-17T18:22:53.370Z,2.47
2023-05-17T18:25:21.735Z,1.20
2023-05-17T18:27:48.727Z,2.03
2023-05-17T18:30:16.700Z,1.90
2023-05-17T18:32:43.767Z,1.30
2023-05-17T18:35:11.384Z,1.60
2023-05-17T18:37:38.386Z,1.75
2023-05-17T18:40:06.561Z,1.65
2023-05-17T18:42:33.627Z,1.00
2023-05-17T18:45:01.063Z,1.25
2023-05-17T18:47:28.289Z,1.42
2023-05-17T18:49:55.679Z,1.73
2023-05-17T18:52:22.783Z,1.20
2023-05-17T18:54:50.179Z,1.65
2023-05-17T18:57:17.259Z,1.42
2023-05-17T18:59:44.406Z,1.58
2023-05-17T19:02:11.539Z,1.55
2023-05-17T19:04:38.660Z,1.27
2023-05-17T19:07:05.738Z,1.13
2023-05-17T19:09:34.383Z,1.27
2023-05-17T19:12:01.582Z,1.10
2023-05-17T19:14:28.700Z,2.22
2023-05-17T19:16:56.994Z,1.15
2023-05-17T19:19:25.360Z,2.35
2023-05-17T19:21:52.500Z,1.52
2023-05-17T19:24:19.626Z,1.60
2023-05-17T19:26:46.578Z,1.40
2023-05-17T19:29:13.688Z,1.30
2023-05-17T19:31:41.079Z,1.40
2023-05-17T19:34:08.094Z,1.27
2023-05-17T19:36:35.182Z,1.05
2023-05-17T19:39:02.234Z,1.60
2023-05-17T19:41:29.276Z,1.35
2023-05-17T19:43:56.312Z,1.30
2023-05-17T19:46:23.612Z,2.53
2023-05-17T19:48:51.013Z,2.38
2023-05-17T19:51:18.108Z,1.50
2023-05-17T19:53:53.047Z,1.48
2023-05-17T19:56:23.152Z,2.50
2023-05-17T19:58:51.326Z,2.50
2023-05-17T20:01:18.625Z,2.17
2023-05-17T20:03:46.065Z,2.08
2023-05-17T20:06:14.948Z,1.95
2023-05-17T20:08:42.457Z,2.22
2023-05-17T20:11:09.731Z,1.67
2023-05-17T20:13:40.322Z,2.28
2023-05-17T20:16:14.788Z,1.73
2023-05-17T20:18:45.644Z,1.13
2023-05-17T20:21:19.625Z,1.45
2023-05-17T20:23:47.148Z,1.40
2023-05-17T20:26:18.972Z,1.30
2023-05-17T20:28:46.240Z,1.83
2023-05-17T20:31:13.516Z,1.85
2023-05-17T20:33:40.684Z,1.15
2023-05-17T20:36:09.983Z,1.30
2023-05-17T20:38:36.972Z,1.17
2023-05-17T20:41:06.594Z,3.70
2023-05-17T20:43:34.977Z,1.30
2023-05-17T20:46:06.846Z,1.65
2023-05-17T20:48:34.493Z,1.85
2023-05-17T20:51:02.529Z,1.27
2023-05-17T20:53:30.743Z,1.60
2023-05-17T20:55:58.542Z,1.40
2023-05-17T20:58:25.597Z,2.95
2023-05-17T21:00:52.963Z,1.85
2023-05-17T21:03:20.038Z,1.00
2023-05-17T21:05:47.372Z,1.65
2023-05-17T21:08:14.456Z,1.80
2023-05-17T21:10:44.260Z,1.38
2023-05-17T21:13:12.605Z,1.42
2023-05-17T21:15:39.627Z,2.55
2023-05-17T21:18:09.150Z,1.42
2023-05-17T21:20:36.265Z,1.98
2023-05-17T21:23:03.347Z,1.77
2023-05-17T21:25:30.699Z,1.48
2023-05-17T21:27:57.920Z,2.03
2023-05-17T21:30:24.940Z,1.63
2023-05-17T21:32:52.133Z,1.42
2023-05-17T21:35:19.166Z,2.58
2023-05-17T21:37:46.105Z,1.60
2023-05-17T21:40:13.495Z,2.25
2023-05-17T21:42:41.035Z,1.55
2023-05-17T21:45:08.740Z,1.50
2023-05-17T21:47:36.116Z,1.70
2023-05-17T21:50:04.282Z,1.50
2023-05-17T21:52:31.318Z,2.05
2023-05-17T21:54:58.286Z,1.30
2023-05-17T21:57:25.279Z,1.40
2023-05-17T21:59:52.295Z,1.95
2023-05-17T22:02:19.635Z,1.45
2023-05-17T22:04:46.900Z,1.70
2023-05-17T22:07:14.099Z,1.80
2023-05-17T22:09:41.093Z,1.77
2023-05-17T22:12:09.348Z,2.50
2023-05-17T22:14:36.484Z,1.20
2023-05-17T22:17:08.414Z,1.13
2023-05-17T22:19:40.715Z,1.13
2023-05-17T22:22:08.593Z,1.40
2023-05-17T22:24:35.810Z,2.05
2023-05-17T22:27:03.735Z,2.35
2023-05-17T22:29:31.047Z,2.30
2023-05-17T22:31:58.040Z,2.60
2023-05-17T22:34:25.109Z,1.38
2023-05-17T22:36:52.060Z,1.95
2023-05-17T22:39:19.355Z,1.45
2023-05-17T22:41:46.316Z,1.42
2023-05-17T22:44:13.296Z,2.30
2023-05-17T22:46:42.039Z,1.77
2023-05-17T22:49:09.300Z,1.45
2023-05-17T22:51:36.840Z,1.40
2023-05-17T22:54:03.982Z,2.28
2023-05-17T22:56:31.270Z,2.20
2023-05-17T22:58:58.946Z,1.98
2023-05-17T23:01:26.299Z,1.92
2023-05-17T23:03:53.340Z,2.33
2023-05-17T23:06:22.139Z,1.50
2023-05-17T23:08:49.785Z,2.08
2023-05-17T23:11:17.997Z,1.70
2023-05-17T23:13:45.111Z,2.10
2023-05-17T23:16:14.018Z,1.63
2023-05-17T23:18:41.345Z,2.35
2023-05-17T23:21:09.432Z,2.03
2023-05-17T23:23:37.987Z,1.80
2023-05-17T23:26:05.983Z,1.33
2023-05-17T23:28:32.954Z,1.67
2023-05-17T23:31:02.134Z,1.77
2023-05-17T23:33:32.028Z,1.88
2023-05-17T23:35:59.005Z,1.85
2023-05-17T23:38:26.558Z,1.63
2023-05-17T23:40:54.285Z,2.13
2023-05-17T23:43:21.283Z,1.80
2023-05-17T23:45:48.217Z,1.70
2023-05-17T23:48:16.143Z,1.52
2023-05-17T23:50:43.187Z,1.73
2023-05-17T23:53:10.276Z,1.50
2023-05-17T23:55:38.417Z,2.50
2023-05-17T23:58:05.428Z,1.38
